Time;durP1;ratioP1;P1;durP2;ratioP2;P2;SDS_P1;SDS_P2;PMS_P1;PMS_P2;Temp;Humidity;BMP_temperature;BMP_pressure;BME280_temperature;BME280_humidity;BME280_pressure;Samples;Min_cycle;Max_cycle;Signal;HPM_P1;HPM_P2
2022/11/26 00:00:37;;;;;;;75.18;31.75;;;;;;;5.88;76.86;101535.25;6138507;23;20025;-72
2022/11/26 00:03:04;;;;;;;70.13;33.15;;;;;;;5.89;76.57;101539.59;6232272;23;20013;-70
2022/11/26 00:08:34;;;;;;;66.38;29.40;;;;;;;6.08;75.82;101542.66;6160396;23;19904;-72
2022/11/26 00:11:01;;;;;;;77.90;30.95;;;;;;;5.78;76.44;101540.38;6239976;22;20024;-73
2022/11/26 00:13:30;;;;;;;71.57;32.35;;;;;;;5.79;76.51;101543.88;6243304;23;20024;-73
2022/11/26 00:15:56;;;;;;;70.10;31.25;;;;;;;6.06;76.09;101549.91;6242680;23;20036;-73
2022/11/26 00:37:32;;;;;;;70.65;31.42;;;;;;;5.77;76.49;101560.81;6145535;23;20013;-72
2022/11/26 00:39:59;;;;;;;69.30;32.40;;;;;;;6.15;75.65;101573.22;6210287;23;20048;-71
2022/11/26 00:47:28;;;;;;;68.43;31.25;;;;;;;6.16;75.06;101580.25;6152287;23;20017;-71
2022/11/26 00:49:54;;;;;;;79.93;32.42;;;;;;;6.02;75.98;101583.06;6151861;23;20010;-70
2022/11/26 00:52:33;;;;;;;73.28;31.63;;;;;;;6.05;76.06;101580.16;6162586;23;20028;-72
2022/11/26 00:55:25;;;;;;;71.93;31.15;;;;;;;5.96;76.18;101579.00;6227832;22;20032;-72
2022/11/26 00:57:51;;;;;;;68.50;30.40;;;;;;;5.90;76.24;101583.91;6240992;22;20012;-72
2022/11/26 01:00:21;;;;;;;66.88;31.45;;;;;;;5.93;76.52;101581.03;6236944;22;20024;-72
2022/11/26 01:02:48;;;;;;;69.47;31.27;;;;;;;6.13;76.21;101588.47;6210102;23;20017;-72
2022/11/26 01:08:01;;;;;;;77.97;31.88;;;;;;;5.81;77.07;101597.91;6158307;23;20048;-71
2022/11/26 01:10:29;;;;;;;74.65;32.20;;;;;;;5.74;76.90;101600.97;6210942;23;20029;-70
2022/11/26 01:12:56;;;;;;;74.80;31.67;;;;;;;6.07;76.05;101596.88;6208463;22;20059;-71
2022/11/26 01:15:24;;;;;;;80.60;31.77;;;;;;;5.99;76.06;101602.75;6212241;23;20025;-72
2022/11/26 01:23:11;;;;;;;77.60;30.42;;;;;;;6.02;75.96;101607.03;6194886;23;20001;-72
2022/11/26 01:25:38;;;;;;;72.70;31.75;;;;;;;6.08;75.74;101611.94;6211834;23;20032;-72
2022/11/26 01:30:41;;;;;;;72.88;30.50;;;;;;;6.17;75.35;101616.56;6189180;23;20039;-73
2022/11/26 01:33:07;;;;;;;78.03;32.40;;;;;;;6.20;75.46;101619.03;6211074;23;20005;-71
2022/11/26 01:35:35;;;;;;;88.25;34.05;;;;;;;6.18;75.69;101620.97;6205512;23;20081;-71
2022/11/26 01:38:02;;;;;;;98.75;34.20;;;;;;;6.22;75.05;101627.78;6184137;23;20057;-71
2022/11/26 01:40:44;;;;;;;87.38;32.45;;;;;;;6.32;74.84;101632.44;6210636;23;20045;-71
2022/11/26 01:43:14;;;;;;;85.82;32.60;;;;;;;6.33;74.87;101628.84;6205731;23;20048;-71
2022/11/26 01:45:40;;;;;;;98.50;33.60;;;;;;;6.21;75.47;101634.03;6211598;23;20032;-71
2022/11/26 01:48:25;;;;;;;107.10;32.55;;;;;;;6.06;75.77;101632.47;6210351;23;20100;-71
2022/11/26 01:51:11;;;;;;;88.68;32.88;;;;;;;6.22;75.76;101627.78;6181035;23;20068;-72
2022/11/26 01:53:45;;;;;;;82.05;33.15;;;;;;;6.24;75.31;101639.16;6180828;23;20054;-72
2022/11/26 01:56:18;;;;;;;86.15;32.67;;;;;;;6.21;75.83;101644.69;6196112;23;20020;-71
2022/11/26 01:59:17;;;;;;;81.88;32.90;;;;;;;6.29;75.32;101640.66;6210718;23;20019;-72
2022/11/26 02:01:45;;;;;;;91.40;31.55;;;;;;;6.29;75.53;101636.22;6206655;23;20005;-73
2022/11/26 02:04:17;;;;;;;73.53;30.30;;;;;;;6.35;75.00;101632.25;6211047;23;20027;-73
2022/11/26 02:07:11;;;;;;;75.38;30.73;;;;;;;6.28;75.42;101641.63;6210014;23;20076;-72
2022/11/26 02:09:38;;;;;;;79.28;31.38;;;;;;;6.17;75.47;101643.22;6205755;23;20028;-72
2022/11/26 02:12:05;;;;;;;74.82;31.92;;;;;;;6.13;76.42;101651.56;6205258;23;20061;-71
2022/11/26 02:14:35;;;;;;;81.45;31.70;;;;;;;6.18;75.96;101655.59;6210421;23;20057;-72
2022/11/26 02:17:24;;;;;;;82.13;33.67;;;;;;;6.26;75.36;101654.25;6210724;23;20001;-70
2022/11/26 02:19:53;;;;;;;87.93;33.15;;;;;;;6.34;75.24;101660.72;6179048;23;20257;-72
2022/11/26 02:22:50;;;;;;;83.43;33.28;;;;;;;6.24;75.65;101660.47;6180694;23;20025;-72
2022/11/26 02:26:00;;;;;;;91.25;34.15;;;;;;;6.29;75.81;101662.88;6206813;23;20048;-71
2022/11/26 02:28:55;;;;;;;92.60;33.80;;;;;;;6.33;75.28;101676.81;6118678;23;20009;-71
2022/11/26 02:31:46;;;;;;;78.85;32.42;;;;;;;6.24;75.86;101675.63;6149040;23;20073;-71
2022/11/26 02:34:35;;;;;;;104.07;35.97;;;;;;;6.31;75.86;101687.56;6175669;23;20013;-74
2022/11/26 02:37:20;;;;;;;108.88;39.55;;;;;;;6.31;75.58;101681.41;6180303;23;20076;-71
2022/11/26 02:39:47;;;;;;;106.68;36.97;;;;;;;6.21;75.56;101681.16;6176131;23;20078;-71
2022/11/26 02:47:32;;;;;;;119.88;41.67;;;;;;;6.12;76.43;101682.66;6160787;23;20025;-74
2022/11/26 02:50:02;;;;;;;115.65;41.58;;;;;;;6.22;76.20;101685.53;6181789;23;20009;-73
2022/11/26 02:52:31;;;;;;;110.25;40.75;;;;;;;6.06;76.58;101683.09;6180813;23;20022;-72
2022/11/26 02:55:00;;;;;;;123.43;40.28;;;;;;;6.02;77.01;101683.44;6181045;23;20032;-72
2022/11/26 02:57:31;;;;;;;125.70;43.15;;;;;;;6.20;76.07;101682.97;6180557;23;20077;-72
2022/11/26 02:59:58;;;;;;;129.82;43.13;;;;;;;6.34;75.62;101686.50;6180343;23;20028;-72
2022/11/26 03:02:33;;;;;;;119.97;43.22;;;;;;;6.14;76.08;101680.72;6180780;23;20021;-73
2022/11/26 03:07:35;;;;;;;119.22;45.15;;;;;;;6.29;76.34;101683.31;6134816;23;19905;-73
2022/11/26 03:10:02;;;;;;;126.15;44.67;;;;;;;6.29;76.14;101684.19;6158347;23;20010;-71
2022/11/26 03:15:06;;;;;;;123.47;45.35;;;;;;;6.13;76.60;101692.38;6175300;23;19997;-72
2022/11/26 03:17:32;;;;;;;128.93;45.60;;;;;;;6.27;76.10;101694.09;6210820;23;20039;-72
2022/11/26 03:19:59;;;;;;;140.70;45.17;;;;;;;6.22;76.30;101698.88;6210671;23;20047;-73
2022/11/26 03:27:49;;;;;;;128.02;45.33;;;;;;;6.34;75.74;101702.50;6183795;23;20009;-71
2022/11/26 03:30:15;;;;;;;106.60;42.85;;;;;;;6.05;76.82;101712.53;6209829;23;20021;-72
2022/11/26 03:32:42;;;;;;;120.32;45.67;;;;;;;6.01;77.04;101714.53;6211212;23;20009;-71
2022/11/26 03:35:08;;;;;;;113.47;43.67;;;;;;;6.12;76.72;101716.47;6205118;23;20069;-70
2022/11/26 03:37:35;;;;;;;129.18;45.75;;;;;;;6.03;76.91;101717.94;6209338;23;20009;-72
2022/11/26 03:42:37;;;;;;;118.82;44.47;;;;;;;6.30;76.00;101722.34;6174910;23;19998;-71
2022/11/26 03:45:05;;;;;;;126.93;45.92;;;;;;;6.18;76.46;101724.88;6180033;23;20056;-73
2022/11/26 03:47:31;;;;;;;119.07;44.65;;;;;;;6.35;75.84;101730.84;6179127;23;20028;-71
2022/11/26 03:49:57;;;;;;;133.10;44.40;;;;;;;6.29;76.20;101725.94;6180735;23;20057;-71
2022/11/26 03:52:24;;;;;;;130.23;44.85;;;;;;;6.18;77.12;101727.53;6179500;22;20026;-73
2022/11/26 03:54:50;;;;;;;135.70;46.95;;;;;;;6.18;76.58;101730.22;6178493;23;20049;-72
2022/11/26 03:57:17;;;;;;;140.10;47.03;;;;;;;5.91;77.91;101735.63;6179609;23;20006;-72
2022/11/26 03:59:43;;;;;;;154.30;48.78;;;;;;;5.69;79.04;101730.88;6179438;23;20069;-72
2022/11/26 04:02:10;;;;;;;139.43;46.53;;;;;;;6.11;77.87;101731.56;6153209;23;20030;-72
2022/11/26 04:04:36;;;;;;;139.40;47.47;;;;;;;6.29;77.20;101737.47;6149914;23;20006;-71
2022/11/26 04:07:03;;;;;;;131.52;47.05;;;;;;;6.13;77.13;101747.47;6149778;23;21433;-72
2022/11/26 04:09:30;;;;;;;151.20;48.92;;;;;;;6.11;77.59;101752.03;6150901;23;20046;-72
2022/11/26 04:11:57;;;;;;;139.43;47.22;;;;;;;6.16;77.07;101741.94;6150442;23;20013;-72
2022/11/26 04:14:23;;;;;;;148.20;46.63;;;;;;;6.05;77.31;101749.81;6197152;23;20012;-71
2022/11/26 04:16:50;;;;;;;145.10;46.78;;;;;;;6.16;77.96;101753.44;6151116;23;20022;-72
2022/11/26 04:19:16;;;;;;;163.50;47.58;;;;;;;6.18;77.60;101751.53;6150435;23;20029;-72
2022/11/26 04:21:43;;;;;;;142.27;47.65;;;;;;;6.35;76.80;101761.00;6151291;23;20040;-71
2022/11/26 04:24:10;;;;;;;124.35;46.35;;;;;;;6.40;76.45;101763.38;6150987;23;20053;-71
2022/11/26 04:26:36;;;;;;;139.98;47.65;;;;;;;6.12;77.31;101759.09;6149600;23;20024;-72
2022/11/26 04:29:03;;;;;;;138.60;45.45;;;;;;;6.03;77.67;101767.69;6149445;23;20034;-72
2022/11/26 04:31:29;;;;;;;121.57;45.38;;;;;;;6.33;77.19;101767.44;6151123;23;20010;-71
2022/11/26 04:33:56;;;;;;;126.93;44.97;;;;;;;6.33;76.55;101780.75;6151283;23;20021;-72
2022/11/26 04:36:22;;;;;;;125.68;43.13;;;;;;;6.13;77.31;101788.28;6151145;23;20002;-72
2022/11/26 04:38:49;;;;;;;133.07;46.08;;;;;;;6.12;77.41;101789.25;6152624;23;20030;-72
2022/11/26 04:41:15;;;;;;;127.05;44.80;;;;;;;6.38;76.95;101786.59;6152551;23;20010;-72
2022/11/26 04:43:43;;;;;;;131.65;45.08;;;;;;;6.20;77.39;101789.56;6153437;23;20033;-71
2022/11/26 04:46:09;;;;;;;124.45;44.42;;;;;;;6.46;76.58;101787.78;6153133;23;20021;-72
2022/11/26 04:48:36;;;;;;;132.73;43.97;;;;;;;6.44;76.28;101796.84;6152955;23;20029;-71
2022/11/26 04:51:02;;;;;;;121.60;42.75;;;;;;;6.45;76.61;101801.22;6152530;23;20010;-72
2022/11/26 04:53:29;;;;;;;111.43;42.13;;;;;;;6.16;77.47;101806.72;6152375;23;20006;-72
2022/11/26 04:55:55;;;;;;;101.25;41.00;;;;;;;6.27;77.11;101814.00;6153049;23;20010;-72
2022/11/26 04:58:22;;;;;;;126.93;41.83;;;;;;;6.21;77.48;101807.25;6151679;23;20069;-72
2022/11/26 05:00:49;;;;;;;104.65;41.97;;;;;;;6.21;77.36;101812.56;6152239;23;20058;-72
2022/11/26 05:03:17;;;;;;;98.07;40.15;;;;;;;6.06;77.61;101815.44;6151250;23;20005;-72
2022/11/26 05:05:43;;;;;;;106.30;41.13;;;;;;;6.06;77.97;101818.09;6153208;23;20017;-72
2022/11/26 05:08:10;;;;;;;101.10;38.13;;;;;;;5.88;78.34;101822.88;6151441;23;20053;-72
2022/11/26 05:10:36;;;;;;;102.93;39.67;;;;;;;6.19;77.20;101822.50;6151403;23;20053;-72
2022/11/26 05:13:03;;;;;;;96.63;36.50;;;;;;;6.13;77.00;101822.91;6150819;23;20054;-72
2022/11/26 05:15:29;;;;;;;89.50;37.40;;;;;;;6.45;76.69;101833.19;6151250;23;20045;-72
2022/11/26 05:17:56;;;;;;;87.75;37.65;;;;;;;6.20;76.99;101840.19;6152289;23;20053;-72
2022/11/26 05:20:23;;;;;;;94.25;38.80;;;;;;;6.16;76.96;101844.03;6151533;23;20006;-71
2022/11/26 05:22:49;;;;;;;85.93;36.47;;;;;;;6.32;76.47;101841.22;6151429;23;20034;-72
2022/11/26 05:25:16;;;;;;;84.35;35.42;;;;;;;6.38;76.32;101848.75;6152303;23;20018;-71
2022/11/26 05:27:42;;;;;;;73.80;34.45;;;;;;;6.46;75.92;101854.44;6158183;23;20021;-72
2022/11/26 05:30:09;;;;;;;88.80;34.95;;;;;;;6.34;76.37;101854.41;6151386;23;20049;-72
2022/11/26 05:32:36;;;;;;;87.65;36.38;;;;;;;6.21;76.95;101863.19;6151387;23;20029;-71
2022/11/26 05:35:03;;;;;;;81.68;34.17;;;;;;;6.30;76.32;101871.59;6152372;23;20009;-71
2022/11/26 05:37:29;;;;;;;89.30;35.50;;;;;;;6.33;76.84;101866.03;6151818;23;20029;-73
2022/11/26 05:39:56;;;;;;;85.85;33.50;;;;;;;6.50;76.08;101870.22;6151721;23;20024;-72
2022/11/26 05:42:22;;;;;;;85.10;34.53;;;;;;;6.20;77.01;101864.16;6150354;23;20052;-73
2022/11/26 05:44:49;;;;;;;77.35;33.50;;;;;;;6.29;76.68;101864.53;6151657;23;20025;-73
2022/11/26 05:47:15;;;;;;;83.38;32.20;;;;;;;6.16;77.00;101864.50;6152596;23;20053;-71
2022/11/26 05:49:41;;;;;;;70.03;30.90;;;;;;;6.01;77.66;101871.72;6151348;23;20037;-71
2022/11/26 05:52:08;;;;;;;76.28;30.23;;;;;;;6.17;77.05;101875.03;6151472;23;20013;-70
2022/11/26 05:54:35;;;;;;;74.20;30.08;;;;;;;6.19;76.56;101875.78;6151481;23;20032;-72
2022/11/26 05:57:02;;;;;;;74.35;29.02;;;;;;;6.17;76.61;101882.16;6151706;23;20061;-71
2022/11/26 05:59:28;;;;;;;84.95;30.63;;;;;;;6.12;77.02;101884.31;6150858;23;20010;-73
2022/11/26 06:01:55;;;;;;;79.38;29.40;;;;;;;5.99;77.06;101879.78;6136832;23;20029;-72
2022/11/26 06:04:22;;;;;;;81.07;28.83;;;;;;;6.24;76.62;101886.13;6150744;23;20005;-73
2022/11/26 06:06:48;;;;;;;83.18;29.65;;;;;;;6.26;76.81;101891.41;6151244;23;20040;-73
2022/11/26 06:09:14;;;;;;;74.20;28.00;;;;;;;6.14;77.13;101893.03;6152010;23;20017;-71
2022/11/26 06:11:41;;;;;;;80.63;29.30;;;;;;;6.24;76.32;101899.47;6150543;23;20030;-72
2022/11/26 06:14:09;;;;;;;77.25;29.33;;;;;;;6.26;76.50;101902.91;6151670;23;21754;-71
2022/11/26 06:16:36;;;;;;;75.30;26.15;;;;;;;6.23;76.73;101911.94;6151078;23;20012;-72
2022/11/26 06:19:02;;;;;;;75.22;27.85;;;;;;;6.33;76.09;101906.88;6151680;23;20010;-71
2022/11/26 06:21:29;;;;;;;80.55;28.08;;;;;;;6.30;76.49;101906.22;6151008;23;20041;-71
2022/11/26 07:00:16;;;;;;;67.10;21.60;;;;;;;6.38;76.31;101976.69;6141664;23;21106;31
2022/11/26 07:02:43;;;;;;;63.07;21.03;;;;;;;6.27;76.29;101976.56;6158079;23;20090;-71
2022/11/26 07:05:09;;;;;;;65.13;20.75;;;;;;;6.13;76.94;101974.78;6206462;23;20009;-71
2022/11/26 07:22:11;;;;;;;68.10;21.40;;;;;;;6.49;75.79;101994.66;6180042;23;20013;-72
2022/11/26 07:27:12;;;;;;;62.22;19.00;;;;;;;6.43;75.67;102005.75;6157834;23;20032;-71
2022/11/26 07:29:39;;;;;;;69.75;22.33;;;;;;;6.36;75.89;101999.09;6210515;23;20004;-72
2022/11/26 07:34:41;;;;;;;77.18;21.08;;;;;;;6.18;76.44;101996.66;6166254;23;20041;-72
2022/11/26 07:37:08;;;;;;;71.03;20.48;;;;;;;6.43;75.40;102005.75;6208902;23;20061;-71
2022/11/26 07:39:34;;;;;;;73.20;21.92;;;;;;;6.30;75.44;102005.69;6207231;23;20009;-73
2022/11/26 07:42:01;;;;;;;66.40;21.65;;;;;;;6.29;75.97;102008.44;6208411;23;20039;-75
2022/11/26 07:44:27;;;;;;;72.68;21.15;;;;;;;6.55;75.36;102010.25;6209585;23;20068;-73
2022/11/26 07:46:54;;;;;;;58.00;18.80;;;;;;;6.65;74.90;102021.16;6210882;23;20017;-73
2022/11/26 07:49:20;;;;;;;60.40;20.25;;;;;;;6.18;76.47;102017.97;6209969;23;20001;-72
2022/11/26 07:51:47;;;;;;;66.10;19.45;;;;;;;6.36;75.81;102023.09;6207945;23;20001;-71
2022/11/26 07:54:13;;;;;;;68.60;20.73;;;;;;;6.15;75.99;102028.84;6210220;23;20053;-71
2022/11/26 07:56:40;;;;;;;59.88;19.42;;;;;;;6.10;76.12;102020.28;6207144;23;20028;-72
2022/11/26 07:59:06;;;;;;;53.92;17.98;;;;;;;6.33;75.97;102026.81;6207103;23;20020;-70
2022/11/26 08:04:08;;;;;;;60.05;17.67;;;;;;;6.36;75.83;102033.75;6107495;23;20095;-72
2022/11/26 08:06:34;;;;;;;57.83;17.02;;;;;;;6.12;76.11;102033.50;6205154;23;20012;-72
2022/11/26 08:09:02;;;;;;;58.30;17.10;;;;;;;6.29;75.81;102037.75;6180601;22;20531;-71
2022/11/26 08:11:31;;;;;;;53.20;16.88;;;;;;;6.26;75.32;102040.66;6241018;22;20048;-74
2022/11/26 08:14:00;;;;;;;56.45;16.67;;;;;;;6.35;75.75;102042.69;6240569;22;20001;-73
2022/11/26 08:16:27;;;;;;;59.33;17.50;;;;;;;6.54;74.93;102051.19;6238688;22;20001;-72
2022/11/26 08:19:01;;;;;;;53.40;17.00;;;;;;;6.62;74.68;102059.53;6241625;22;20015;-72
2022/11/26 08:21:28;;;;;;;70.63;16.42;;;;;;;6.41;75.05;102060.94;6239733;22;20060;-73
2022/11/26 08:23:55;;;;;;;64.50;15.52;;;;;;;6.66;74.26;102061.03;6240861;22;20044;-72
2022/11/26 08:26:24;;;;;;;57.30;14.38;;;;;;;6.59;74.35;102058.88;6240934;22;20034;-71
2022/11/26 08:29:01;;;;;;;53.38;15.20;;;;;;;6.67;74.07;102067.25;6239163;22;20008;-74
2022/11/26 08:31:28;;;;;;;56.47;14.40;;;;;;;6.73;73.63;102063.31;6241596;22;20040;-71
2022/11/26 08:33:56;;;;;;;59.92;14.63;;;;;;;6.68;73.52;102064.47;6242132;22;20011;-72
2022/11/26 08:36:23;;;;;;;53.15;14.27;;;;;;;6.83;73.29;102069.72;6240944;22;20023;-70
2022/11/26 08:38:50;;;;;;;51.70;14.40;;;;;;;6.64;74.32;102070.97;6239933;22;20020;-71
2022/11/26 08:41:17;;;;;;;40.22;14.38;;;;;;;6.79;73.66;102076.22;6241271;22;20044;-72
2022/11/26 08:46:20;;;;;;;51.10;14.60;;;;;;;6.69;73.47;102076.84;6190142;22;20005;-72
2022/11/26 08:48:47;;;;;;;60.33;15.57;;;;;;;6.63;73.97;102079.06;6211207;23;20052;-72
2022/11/26 08:51:13;;;;;;;48.42;13.95;;;;;;;6.45;74.68;102079.31;6209585;23;20015;-72
2022/11/26 08:53:39;;;;;;;43.97;13.07;;;;;;;6.66;73.92;102082.38;6211704;23;20056;-73
2022/11/26 08:56:08;;;;;;;53.15;15.48;;;;;;;6.96;73.11;102089.28;6211150;23;20001;-73
2022/11/26 08:58:37;;;;;;;53.80;15.20;;;;;;;6.74;73.61;102086.34;6211929;23;20007;-73
2022/11/26 09:01:08;;;;;;;53.88;14.73;;;;;;;6.91;72.73;102100.28;6197331;23;20013;-73
2022/11/26 09:03:35;;;;;;;49.75;14.32;;;;;;;7.00;72.55;102106.81;6181119;23;20021;-71
2022/11/26 09:06:03;;;;;;;46.92;13.93;;;;;;;6.92;72.55;102109.13;6180696;23;20049;-72
2022/11/26 09:08:30;;;;;;;47.97;13.93;;;;;;;6.98;72.58;102113.19;6181443;23;20013;-71
2022/11/26 09:10:57;;;;;;;49.70;12.70;;;;;;;6.83;72.97;102105.25;6180705;23;20002;-72
2022/11/26 09:13:23;;;;;;;48.13;12.80;;;;;;;6.86;72.96;102109.53;6171795;23;20009;-73
2022/11/26 09:15:50;;;;;;;41.97;12.27;;;;;;;6.83;72.85;102112.41;6181083;23;20061;-71
2022/11/26 09:18:17;;;;;;;42.05;11.82;;;;;;;6.91;72.76;102123.41;6181203;23;20029;-72
2022/11/26 09:20:43;;;;;;;40.08;12.07;;;;;;;6.96;72.71;102115.97;6180596;23;20057;-73
2022/11/26 09:23:10;;;;;;;52.85;15.27;;;;;;;7.01;72.27;102121.84;6179562;23;20061;-71
2022/11/26 09:25:38;;;;;;;45.40;14.07;;;;;;;7.14;71.71;102127.22;6181091;23;20021;-72
2022/11/26 09:28:04;;;;;;;51.83;13.90;;;;;;;6.98;72.55;102131.88;6181035;23;20053;-72
2022/11/26 09:30:32;;;;;;;55.13;19.25;;;;;;;6.93;72.15;102130.38;6181360;23;20057;-73
2022/11/26 09:32:58;;;;;;;65.95;22.58;;;;;;;6.65;73.16;102134.00;6180806;23;20005;-72
2022/11/26 09:35:25;;;;;;;59.13;17.67;;;;;;;6.72;73.01;102139.78;6180698;23;20009;-71
2022/11/26 09:37:52;;;;;;;47.85;14.75;;;;;;;6.88;71.90;102140.50;6178828;23;20029;-69
2022/11/26 09:40:18;;;;;;;54.10;20.52;;;;;;;6.82;72.41;102143.56;6178649;23;20025;-71
2022/11/26 09:42:53;;;;;;;66.40;22.77;;;;;;;6.78;71.85;102149.22;6178740;23;20014;-71
2022/11/26 09:45:36;;;;;;;49.05;18.27;;;;;;;6.72;72.45;102155.78;6182416;23;20020;-70
2022/11/26 09:48:07;;;;;;;33.22;11.45;;;;;;;6.84;72.51;102155.00;6204291;23;20029;-71
2022/11/26 09:50:37;;;;;;;48.95;12.32;;;;;;;6.81;72.10;102149.88;6205274;23;20040;-70
2022/11/26 09:53:24;;;;;;;38.75;11.13;;;;;;;6.92;71.86;102154.50;6206418;23;20021;-70
2022/11/26 09:55:53;;;;;;;44.05;11.15;;;;;;;6.83;71.89;102163.94;6206626;23;20012;-71
2022/11/26 09:58:43;;;;;;;42.80;12.05;;;;;;;6.98;71.82;102159.44;6181382;23;20345;-70
2022/11/26 10:01:16;;;;;;;32.15;9.85;;;;;;;6.33;73.42;102153.91;6206299;23;20001;-71
2022/11/26 10:03:43;;;;;;;40.53;10.40;;;;;;;6.71;72.53;102164.75;6205798;23;20021;-71
2022/11/26 10:06:41;;;;;;;52.45;13.80;;;;;;;7.10;70.90;102171.09;6207940;23;20027;-70
2022/11/26 10:09:30;;;;;;;45.15;11.30;;;;;;;6.77;71.41;102168.81;6206935;23;20028;-73
2022/11/26 10:12:25;;;;;;;40.03;9.68;;;;;;;6.89;71.78;102171.56;6177577;23;20013;-72
2022/11/26 10:15:03;;;;;;;42.00;10.90;;;;;;;6.57;72.63;102162.13;6205827;23;20079;-71
2022/11/26 10:17:48;;;;;;;31.65;9.65;;;;;;;6.60;72.47;102168.13;6181067;23;20025;-71
2022/11/26 10:20:24;;;;;;;47.35;8.82;;;;;;;6.63;72.95;102170.59;6207918;23;20041;-70
2022/11/26 10:23:23;;;;;;;45.38;11.57;;;;;;;6.52;72.74;102169.56;6206927;23;20023;-70
2022/11/26 10:26:17;;;;;;;45.33;10.45;;;;;;;6.85;72.21;102167.38;6134804;23;20036;-71
2022/11/26 10:28:49;;;;;;;40.30;10.18;;;;;;;6.61;72.45;102163.66;6193540;23;20036;-71
2022/11/26 10:31:25;;;;;;;44.70;10.77;;;;;;;6.63;72.00;102172.38;6205720;23;20216;-70
2022/11/26 10:33:54;;;;;;;43.53;9.80;;;;;;;6.60;71.63;102175.25;6205119;23;20069;-71
2022/11/26 10:36:28;;;;;;;38.65;8.98;;;;;;;6.65;71.63;102178.50;6204915;23;20045;-71
2022/11/26 10:38:55;;;;;;;36.33;10.02;;;;;;;6.48;72.07;102179.56;6205466;23;20053;-72
2022/11/26 10:41:26;;;;;;;36.88;10.32;;;;;;;6.79;71.35;102186.44;6201140;23;20431;-70
2022/11/26 10:43:53;;;;;;;46.58;11.43;;;;;;;6.79;70.99;102189.13;6170289;23;20100;-71
2022/11/26 10:46:39;;;;;;;41.85;10.75;;;;;;;6.86;71.04;102193.09;6196950;23;20028;-70
2022/11/26 10:49:22;;;;;;;47.45;10.73;;;;;;;6.99;70.71;102192.31;6196666;23;20021;-71
2022/11/26 10:51:50;;;;;;;57.20;12.57;;;;;;;6.77;70.44;102193.69;6195580;23;20027;-71
2022/11/26 10:54:34;;;;;;;43.58;11.60;;;;;;;6.55;71.25;102196.88;6169671;23;20048;-72
2022/11/26 10:57:10;;;;;;;41.22;11.30;;;;;;;6.85;70.90;102198.53;6196387;23;20025;-71
2022/11/26 10:59:51;;;;;;;39.65;11.07;;;;;;;6.99;70.77;102202.97;6198866;23;20021;-73
2022/11/26 11:02:21;;;;;;;51.03;11.75;;;;;;;6.89;70.95;102211.56;6197425;23;20403;-72
2022/11/26 11:04:51;;;;;;;46.88;11.57;;;;;;;6.89;70.71;102205.38;6166369;23;20018;-71
2022/11/26 11:07:32;;;;;;;37.22;11.82;;;;;;;6.70;71.20;102211.91;6189583;23;20331;-71
2022/11/26 11:10:08;;;;;;;;;;;;;;;6.78;71.37;102205.22;6167357;23;20028;-71
2022/11/26 11:12:36;;;;;;;50.33;13.07;;;;;;;6.78;71.52;102207.91;6197080;23;19932;-71
2022/11/26 11:15:25;;;;;;;41.20;12.13;;;;;;;6.93;71.34;102206.88;6195570;23;20044;-72
2022/11/26 11:18:01;;;;;;;41.15;13.35;;;;;;;6.80;71.35;102206.81;6197649;23;20051;-71
2022/11/26 11:20:37;;;;;;;48.58;13.27;;;;;;;6.81;71.34;102207.72;6191454;23;20021;-71
2022/11/26 11:23:19;;;;;;;46.42;14.27;;;;;;;6.82;71.58;102214.75;6194626;23;20041;-74
2022/11/26 11:25:57;;;;;;;44.20;14.73;;;;;;;7.01;71.44;102214.38;6196171;23;20043;-71
2022/11/26 11:28:29;;;;;;;50.47;14.85;;;;;;;7.19;70.96;102216.72;6195936;23;20027;-73
2022/11/26 11:31:00;;;;;;;52.47;14.75;;;;;;;7.05;71.23;102219.44;6193799;23;20021;-71
2022/11/26 11:33:28;;;;;;;48.47;15.38;;;;;;;7.02;71.38;102219.63;6194812;23;20048;-72
2022/11/26 11:36:05;;;;;;;50.85;14.77;;;;;;;7.18;70.89;102212.31;6167873;23;20021;-72
2022/11/26 11:38:46;;;;;;;46.92;14.82;;;;;;;6.80;71.65;102216.63;6191006;23;20401;-70
2022/11/26 11:41:42;;;;;;;51.22;13.25;;;;;;;6.98;71.41;102212.78;6192332;23;20044;-71
2022/11/26 11:44:16;;;;;;;46.97;13.40;;;;;;;7.29;70.25;102222.31;6194157;23;20037;-71
2022/11/26 11:47:05;;;;;;;36.63;13.20;;;;;;;7.25;70.53;102218.09;6194460;23;20021;-72
2022/11/26 11:49:33;;;;;;;45.45;12.88;;;;;;;7.32;69.82;102221.22;6194031;23;20036;-71
2022/11/26 11:52:25;;;;;;;50.75;14.93;;;;;;;7.25;70.16;102222.59;6190041;23;20029;-71
2022/11/26 11:55:08;;;;;;;44.63;14.77;;;;;;;7.35;70.13;102218.34;6193269;23;20096;-71
2022/11/26 11:57:52;;;;;;;61.97;16.50;;;;;;;7.36;69.76;102220.06;6196348;23;20260;-73
2022/11/26 12:00:44;;;;;;;54.08;19.63;;;;;;;7.41;70.06;102221.47;6196535;23;20048;-71
2022/11/26 12:03:52;;;;;;;47.22;13.93;;;;;;;7.36;70.11;102228.94;6197882;23;20032;-71
2022/11/26 12:06:30;;;;;;;45.17;13.75;;;;;;;7.27;70.42;102226.03;6076376;23;20023;-70
2022/11/26 12:09:27;;;;;;;42.15;13.05;;;;;;;7.33;70.39;102228.31;6077371;23;20027;-71
2022/11/26 12:12:21;;;;;;;49.38;13.65;;;;;;;7.59;69.40;102223.84;6076817;23;20058;-71
2022/11/26 12:14:54;;;;;;;39.55;13.38;;;;;;;7.29;70.07;102226.75;6077145;23;20027;-71
2022/11/26 12:17:29;;;;;;;42.53;11.82;;;;;;;7.45;70.14;102223.94;6077472;23;20076;-71
2022/11/26 12:20:16;;;;;;;38.38;13.02;;;;;;;7.49;69.75;102225.44;6078408;23;20082;-71
2022/11/26 12:22:50;;;;;;;45.35;11.20;;;;;;;7.10;71.00;102224.47;6079754;23;20114;-71
2022/11/26 12:25:30;;;;;;;33.58;8.88;;;;;;;7.11;70.67;102228.84;6077384;23;20074;-71
2022/11/26 12:28:16;;;;;;;39.90;9.52;;;;;;;7.08;70.46;102221.88;6078907;23;20444;-71
2022/11/26 12:30:50;;;;;;;32.55;9.50;;;;;;;7.11;70.46;102232.34;6078880;23;20027;-73
2022/11/26 12:33:34;;;;;;;30.27;8.40;;;;;;;7.16;70.16;102230.25;6079189;23;20022;-71
2022/11/26 12:36:34;;;;;;;32.38;8.45;;;;;;;6.99;70.26;102225.19;6077582;23;20078;-71
2022/11/26 12:39:05;;;;;;;23.95;7.63;;;;;;;7.04;70.14;102219.53;6075081;23;20029;-71
2022/11/26 12:41:54;;;;;;;30.38;7.18;;;;;;;6.64;70.75;102225.63;6200277;23;20024;-71
2022/11/26 12:44:38;;;;;;;31.40;7.00;;;;;;;6.62;70.89;102224.88;6197226;23;20391;-71
2022/11/26 12:47:29;;;;;;;29.65;8.02;;;;;;;6.72;70.71;102222.47;6198352;23;20042;-72
2022/11/26 12:50:04;;;;;;;25.63;7.30;;;;;;;7.06;69.60;102229.16;6200002;23;20029;-71
2022/11/26 12:53:09;;;;;;;35.08;8.32;;;;;;;6.95;69.27;102227.19;6199718;23;20036;-70
2022/11/26 12:55:47;;;;;;;31.35;7.70;;;;;;;6.91;69.33;102225.69;6200861;23;20077;-72
2022/11/26 12:58:38;;;;;;;26.88;6.70;;;;;;;6.88;69.48;102233.03;6199695;23;20025;-71
2022/11/26 13:01:08;;;;;;;25.10;7.55;;;;;;;6.87;69.30;102225.97;6201184;23;20088;-70
2022/11/26 13:03:34;;;;;;;29.92;7.85;;;;;;;6.77;69.55;102232.84;6202843;23;20009;-72
2022/11/26 13:06:07;;;;;;;22.65;7.38;;;;;;;6.76;69.83;102236.47;6201447;23;20017;-72
2022/11/26 13:08:53;;;;;;;23.70;7.22;;;;;;;6.65;69.77;102234.50;6202701;23;20096;-72
2022/11/26 13:11:41;;;;;;;23.40;7.05;;;;;;;6.89;69.56;102237.41;6200205;23;20021;-71
2022/11/26 13:14:57;;;;;;;29.55;7.75;;;;;;;7.01;69.14;102241.91;6203483;23;20021;-72
2022/11/26 13:17:40;;;;;;;26.73;7.35;;;;;;;6.94;69.24;102236.16;6054408;23;20027;-73
2022/11/26 13:20:35;;;;;;;30.77;7.10;;;;;;;7.00;68.98;102237.56;6053250;23;20093;-72
2022/11/26 13:23:39;;;;;;;28.17;7.85;;;;;;;6.84;69.36;102247.50;6056294;23;20083;-72
2022/11/26 13:26:16;;;;;;;29.30;7.15;;;;;;;6.78;69.89;102246.09;6056363;23;20039;-72
2022/11/26 13:29:03;;;;;;;26.90;7.10;;;;;;;6.57;71.08;102239.47;6056728;23;20087;-73
2022/11/26 13:31:52;;;;;;;32.17;7.32;;;;;;;6.60;70.92;102248.13;6059111;23;20356;-72
2022/11/26 13:34:38;;;;;;;39.67;8.38;;;;;;;6.58;70.72;102244.69;6058746;23;20071;-73
2022/11/26 13:37:29;;;;;;;33.85;7.45;;;;;;;6.43;71.71;102251.00;6058898;23;20027;-72
2022/11/26 13:40:27;;;;;;;25.98;7.85;;;;;;;6.64;71.06;102252.31;6058023;23;20047;-73